sensor_id;sensor_type;location;lat;lon;timestamp;temperature;humidity
68480;DHT22;55469;48.934;12.050;2023-03-12T00:00:45;5.40;92.50
68480;DHT22;55469;48.934;12.050;2023-03-12T00:03:11;5.40;92.40
68480;DHT22;55469;48.934;12.050;2023-03-12T00:05:38;5.40;92.50
68480;DHT22;55469;48.934;12.050;2023-03-12T00:08:04;5.30;92.50
68480;DHT22;55469;48.934;12.050;2023-03-12T00:10:31;5.30;92.60
68480;DHT22;55469;48.934;12.050;2023-03-12T00:12:56;5.30;92.60
68480;DHT22;55469;48.934;12.050;2023-03-12T00:15:22;5.30;92.60
68480;DHT22;55469;48.934;12.050;2023-03-12T00:17:49;5.30;92.50
68480;DHT22;55469;48.934;12.050;2023-03-12T00:20:15;5.40;92.40
68480;DHT22;55469;48.934;12.050;2023-03-12T00:22:41;5.40;92.40
68480;DHT22;55469;48.934;12.050;2023-03-12T00:25:11;5.40;92.30
68480;DHT22;55469;48.934;12.050;2023-03-12T00:27:38;5.40;92.40
68480;DHT22;55469;48.934;12.050;2023-03-12T00:30:05;5.40;92.30
68480;DHT22;55469;48.934;12.050;2023-03-12T00:32:32;5.40;92.40
68480;DHT22;55469;48.934;12.050;2023-03-12T00:34:58;5.30;92.30
68480;DHT22;55469;48.934;12.050;2023-03-12T00:37:24;5.30;92.50
68480;DHT22;55469;48.934;12.050;2023-03-12T00:39:49;5.30;92.40
68480;DHT22;55469;48.934;12.050;2023-03-12T00:42:15;5.30;92.40
68480;DHT22;55469;48.934;12.050;2023-03-12T00:44:41;5.20;92.40
68480;DHT22;55469;48.934;12.050;2023-03-12T00:47:08;5.20;92.40
68480;DHT22;55469;48.934;12.050;2023-03-12T00:49:35;5.20;92.40
68480;DHT22;55469;48.934;12.050;2023-03-12T00:52:01;5.20;92.40
68480;DHT22;55469;48.934;12.050;2023-03-12T00:54:26;5.20;92.40
68480;DHT22;55469;48.934;12.050;2023-03-12T00:56:52;5.20;92.40
68480;DHT22;55469;48.934;12.050;2023-03-12T00:59:18;5.20;92.40
68480;DHT22;55469;48.934;12.050;2023-03-12T01:01:43;5.20;92.40
68480;DHT22;55469;48.934;12.050;2023-03-12T01:04:09;5.20;92.40
68480;DHT22;55469;48.934;12.050;2023-03-12T01:06:35;5.10;92.40
68480;DHT22;55469;48.934;12.050;2023-03-12T01:09:03;5.10;92.40
68480;DHT22;55469;48.934;12.050;2023-03-12T01:11:29;5.10;92.50
68480;DHT22;55469;48.934;12.050;2023-03-12T01:13:57;5.00;92.50
68480;DHT22;55469;48.934;12.050;2023-03-12T01:16:27;5.00;92.50
68480;DHT22;55469;48.934;12.050;2023-03-12T01:18:56;5.00;92.50
68480;DHT22;55469;48.934;12.050;2023-03-12T01:21:23;5.00;92.50
68480;DHT22;55469;48.934;12.050;2023-03-12T01:23:49;5.00;92.50
68480;DHT22;55469;48.934;12.050;2023-03-12T01:26:15;5.00;92.50
68480;DHT22;55469;48.934;12.050;2023-03-12T01:28:41;4.90;92.50
68480;DHT22;55469;48.934;12.050;2023-03-12T01:31:09;4.90;92.50
68480;DHT22;55469;48.934;12.050;2023-03-12T01:33:36;4.90;92.50
68480;DHT22;55469;48.934;12.050;2023-03-12T01:36:02;4.90;92.50
68480;DHT22;55469;48.934;12.050;2023-03-12T01:38:29;4.80;92.50
68480;DHT22;55469;48.934;12.050;2023-03-12T01:40:54;4.80;92.50
68480;DHT22;55469;48.934;12.050;2023-03-12T01:43:33;4.80;92.50
68480;DHT22;55469;48.934;12.050;2023-03-12T01:46:15;4.80;92.50
68480;DHT22;55469;48.934;12.050;2023-03-12T01:48:58;4.80;92.60
68480;DHT22;55469;48.934;12.050;2023-03-12T01:51:35;4.70;92.60
68480;DHT22;55469;48.934;12.050;2023-03-12T01:54:08;4.70;92.60
68480;DHT22;55469;48.934;12.050;2023-03-12T01:56:38;4.70;93.10
68480;DHT22;55469;48.934;12.050;2023-03-12T01:59:18;4.70;92.60
68480;DHT22;55469;48.934;12.050;2023-03-12T02:01:47;4.70;92.70
68480;DHT22;55469;48.934;12.050;2023-03-12T02:04:15;4.70;92.60
68480;DHT22;55469;48.934;12.050;2023-03-12T02:07:06;4.70;93.10
68480;DHT22;55469;48.934;12.050;2023-03-12T02:09:37;4.60;92.60
68480;DHT22;55469;48.934;12.050;2023-03-12T02:12:05;4.60;92.60
68480;DHT22;55469;48.934;12.050;2023-03-12T02:14:31;4.60;92.60
68480;DHT22;55469;48.934;12.050;2023-03-12T02:16:57;4.60;92.60
68480;DHT22;55469;48.934;12.050;2023-03-12T02:22:43;4.50;92.70
68480;DHT22;55469;48.934;12.050;2023-03-12T02:25:34;4.50;92.70
68480;DHT22;55469;48.934;12.050;2023-03-12T02:28:05;4.50;92.70
68480;DHT22;55469;48.934;12.050;2023-03-12T02:30:33;4.40;92.70
68480;DHT22;55469;48.934;12.050;2023-03-12T02:33:01;4.40;92.80
68480;DHT22;55469;48.934;12.050;2023-03-12T02:35:30;4.40;92.90
68480;DHT22;55469;48.934;12.050;2023-03-12T02:37:56;4.30;92.90
68480;DHT22;55469;48.934;12.050;2023-03-12T02:40:26;4.30;92.90
68480;DHT22;55469;48.934;12.050;2023-03-12T02:42:59;4.40;92.80
68480;DHT22;55469;48.934;12.050;2023-03-12T02:45:25;4.30;92.80
68480;DHT22;55469;48.934;12.050;2023-03-12T02:47:52;4.30;92.80
68480;DHT22;55469;48.934;12.050;2023-03-12T02:50:17;4.30;92.80
68480;DHT22;55469;48.934;12.050;2023-03-12T02:52:43;4.30;92.80
68480;DHT22;55469;48.934;12.050;2023-03-12T02:55:09;4.20;92.80
68480;DHT22;55469;48.934;12.050;2023-03-12T02:57:35;4.20;93.40
68480;DHT22;55469;48.934;12.050;2023-03-12T03:00:04;4.20;92.90
68480;DHT22;55469;48.934;12.050;2023-03-12T03:02:32;4.20;92.90
68480;DHT22;55469;48.934;12.050;2023-03-12T03:04:57;4.10;92.90
68480;DHT22;55469;48.934;12.050;2023-03-12T03:07:23;4.10;92.90
68480;DHT22;55469;48.934;12.050;2023-03-12T03:09:49;4.10;92.90
68480;DHT22;55469;48.934;12.050;2023-03-12T03:12:14;4.00;93.00
68480;DHT22;55469;48.934;12.050;2023-03-12T03:14:40;4.10;93.00
68480;DHT22;55469;48.934;12.050;2023-03-12T03:17:06;4.00;93.00
68480;DHT22;55469;48.934;12.050;2023-03-12T03:19:32;4.10;93.00
68480;DHT22;55469;48.934;12.050;2023-03-12T03:21:57;4.00;93.00
68480;DHT22;55469;48.934;12.050;2023-03-12T03:24:23;3.90;93.00
68480;DHT22;55469;48.934;12.050;2023-03-12T03:26:49;4.00;93.00
68480;DHT22;55469;48.934;12.050;2023-03-12T03:29:14;3.90;93.10
68480;DHT22;55469;48.934;12.050;2023-03-12T03:31:41;3.90;93.10
68480;DHT22;55469;48.934;12.050;2023-03-12T03:34:07;3.90;93.00
68480;DHT22;55469;48.934;12.050;2023-03-12T03:36:33;3.90;93.10
68480;DHT22;55469;48.934;12.050;2023-03-12T03:38:58;3.90;93.10
68480;DHT22;55469;48.934;12.050;2023-03-12T03:41:24;3.80;93.10
68480;DHT22;55469;48.934;12.050;2023-03-12T03:43:55;3.80;93.10
68480;DHT22;55469;48.934;12.050;2023-03-12T03:46:22;3.90;93.00
68480;DHT22;55469;48.934;12.050;2023-03-12T03:48:48;3.80;93.10
68480;DHT22;55469;48.934;12.050;2023-03-12T03:51:15;3.80;93.10
68480;DHT22;55469;48.934;12.050;2023-03-12T03:53:41;3.80;93.10
68480;DHT22;55469;48.934;12.050;2023-03-12T03:56:09;3.80;93.00
68480;DHT22;55469;48.934;12.050;2023-03-12T03:58:37;3.80;93.10
68480;DHT22;55469;48.934;12.050;2023-03-12T04:01:03;3.80;93.10
68480;DHT22;55469;48.934;12.050;2023-03-12T04:03:29;3.70;93.10
68480;DHT22;55469;48.934;12.050;2023-03-12T04:05:57;3.80;93.10
68480;DHT22;55469;48.934;12.050;2023-03-12T04:08:24;3.70;93.10
68480;DHT22;55469;48.934;12.050;2023-03-12T04:10:50;3.80;93.10
68480;DHT22;55469;48.934;12.050;2023-03-12T04:13:16;3.80;93.00
68480;DHT22;55469;48.934;12.050;2023-03-12T04:15:50;3.80;93.00
68480;DHT22;55469;48.934;12.050;2023-03-12T04:18:17;3.80;93.00
68480;DHT22;55469;48.934;12.050;2023-03-12T04:20:44;3.70;93.00
68480;DHT22;55469;48.934;12.050;2023-03-12T04:23:10;3.70;93.00
68480;DHT22;55469;48.934;12.050;2023-03-12T04:25:37;3.70;92.90
68480;DHT22;55469;48.934;12.050;2023-03-12T04:28:03;3.70;93.10
68480;DHT22;55469;48.934;12.050;2023-03-12T04:30:29;3.70;93.00
68480;DHT22;55469;48.934;12.050;2023-03-12T04:32:55;3.70;93.00
68480;DHT22;55469;48.934;12.050;2023-03-12T04:35:21;3.70;93.00
68480;DHT22;55469;48.934;12.050;2023-03-12T04:37:46;3.70;93.00
68480;DHT22;55469;48.934;12.050;2023-03-12T04:40:15;3.70;93.00
68480;DHT22;55469;48.934;12.050;2023-03-12T04:42:43;3.70;92.90
68480;DHT22;55469;48.934;12.050;2023-03-12T04:45:10;3.70;93.00
68480;DHT22;55469;48.934;12.050;2023-03-12T04:47:36;3.70;92.90
68480;DHT22;55469;48.934;12.050;2023-03-12T04:50:01;3.60;92.90
68480;DHT22;55469;48.934;12.050;2023-03-12T04:52:28;3.60;93.00
68480;DHT22;55469;48.934;12.050;2023-03-12T04:54:54;3.60;92.90
68480;DHT22;55469;48.934;12.050;2023-03-12T04:57:20;3.60;92.90
68480;DHT22;55469;48.934;12.050;2023-03-12T04:59:46;3.60;93.00
68480;DHT22;55469;48.934;12.050;2023-03-12T05:02:12;3.60;93.00
68480;DHT22;55469;48.934;12.050;2023-03-12T05:04:38;3.50;93.00
68480;DHT22;55469;48.934;12.050;2023-03-12T05:07:04;3.50;93.10
68480;DHT22;55469;48.934;12.050;2023-03-12T05:09:30;3.60;93.10
68480;DHT22;55469;48.934;12.050;2023-03-12T05:11:55;3.50;93.10
68480;DHT22;55469;48.934;12.050;2023-03-12T05:14:21;3.50;93.10
68480;DHT22;55469;48.934;12.050;2023-03-12T05:16:47;3.50;93.00
68480;DHT22;55469;48.934;12.050;2023-03-12T05:19:13;3.50;93.00
68480;DHT22;55469;48.934;12.050;2023-03-12T05:21:40;3.50;93.00
68480;DHT22;55469;48.934;12.050;2023-03-12T05:24:10;3.50;93.10
68480;DHT22;55469;48.934;12.050;2023-03-12T05:26:36;3.40;93.00
68480;DHT22;55469;48.934;12.050;2023-03-12T05:29:04;3.50;93.00
68480;DHT22;55469;48.934;12.050;2023-03-12T05:31:31;3.40;93.10
68480;DHT22;55469;48.934;12.050;2023-03-12T05:34:00;3.40;93.10
68480;DHT22;55469;48.934;12.050;2023-03-12T05:36:26;3.40;93.10
68480;DHT22;55469;48.934;12.050;2023-03-12T05:38:52;3.40;93.10
68480;DHT22;55469;48.934;12.050;2023-03-12T05:41:23;3.40;93.10
68480;DHT22;55469;48.934;12.050;2023-03-12T05:43:52;3.40;93.10
68480;DHT22;55469;48.934;12.050;2023-03-12T05:46:19;3.40;93.20
68480;DHT22;55469;48.934;12.050;2023-03-12T05:48:45;3.40;93.10
68480;DHT22;55469;48.934;12.050;2023-03-12T05:51:11;3.40;93.10
68480;DHT22;55469;48.934;12.050;2023-03-12T05:53:37;3.40;93.10
68480;DHT22;55469;48.934;12.050;2023-03-12T05:56:07;3.40;93.10
68480;DHT22;55469;48.934;12.050;2023-03-12T05:58:36;3.30;93.10
68480;DHT22;55469;48.934;12.050;2023-03-12T06:01:10;3.30;93.10
68480;DHT22;55469;48.934;12.050;2023-03-12T06:03:36;3.30;93.10
68480;DHT22;55469;48.934;12.050;2023-03-12T06:06:02;3.30;93.10
68480;DHT22;55469;48.934;12.050;2023-03-12T06:08:28;3.30;93.10
68480;DHT22;55469;48.934;12.050;2023-03-12T06:10:54;3.30;93.20
68480;DHT22;55469;48.934;12.050;2023-03-12T06:13:21;3.30;93.10
68480;DHT22;55469;48.934;12.050;2023-03-12T06:15:47;3.30;93.10
68480;DHT22;55469;48.934;12.050;2023-03-12T06:18:13;3.30;93.10
68480;DHT22;55469;48.934;12.050;2023-03-12T06:20:39;3.30;93.10
68480;DHT22;55469;48.934;12.050;2023-03-12T06:23:05;3.20;93.10
68480;DHT22;55469;48.934;12.050;2023-03-12T06:25:31;3.30;93.10
68480;DHT22;55469;48.934;12.050;2023-03-12T06:28:00;3.30;93.00
68480;DHT22;55469;48.934;12.050;2023-03-12T06:30:25;3.30;93.10
68480;DHT22;55469;48.934;12.050;2023-03-12T06:32:52;3.30;93.10
68480;DHT22;55469;48.934;12.050;2023-03-12T06:35:19;3.30;93.10
68480;DHT22;55469;48.934;12.050;2023-03-12T06:37:44;3.30;93.10
68480;DHT22;55469;48.934;12.050;2023-03-12T06:40:11;3.30;93.10
68480;DHT22;55469;48.934;12.050;2023-03-12T06:42:37;3.30;93.00
68480;DHT22;55469;48.934;12.050;2023-03-12T06:45:04;3.30;93.10
68480;DHT22;55469;48.934;12.050;2023-03-12T06:47:30;3.30;93.00
68480;DHT22;55469;48.934;12.050;2023-03-12T06:49:56;3.30;93.10
68480;DHT22;55469;48.934;12.050;2023-03-12T06:52:22;3.20;93.00
68480;DHT22;55469;48.934;12.050;2023-03-12T06:54:47;3.20;93.10
68480;DHT22;55469;48.934;12.050;2023-03-12T06:57:13;3.30;93.10
68480;DHT22;55469;48.934;12.050;2023-03-12T06:59:41;3.20;93.10
68480;DHT22;55469;48.934;12.050;2023-03-12T07:02:11;3.20;93.10
68480;DHT22;55469;48.934;12.050;2023-03-12T07:04:37;3.30;93.10
68480;DHT22;55469;48.934;12.050;2023-03-12T07:07:03;3.30;93.50
68480;DHT22;55469;48.934;12.050;2023-03-12T07:09:29;3.30;93.00
68480;DHT22;55469;48.934;12.050;2023-03-12T07:11:55;3.30;93.00
68480;DHT22;55469;48.934;12.050;2023-03-12T07:14:20;3.30;93.00
68480;DHT22;55469;48.934;12.050;2023-03-12T07:16:46;3.30;93.00
68480;DHT22;55469;48.934;12.050;2023-03-12T07:19:12;3.30;92.90
68480;DHT22;55469;48.934;12.050;2023-03-12T07:21:38;3.30;92.90
68480;DHT22;55469;48.934;12.050;2023-03-12T07:24:04;3.30;92.90
68480;DHT22;55469;48.934;12.050;2023-03-12T07:26:33;3.30;92.90
68480;DHT22;55469;48.934;12.050;2023-03-12T07:29:00;3.30;92.80
68480;DHT22;55469;48.934;12.050;2023-03-12T07:31:26;3.30;92.80
68480;DHT22;55469;48.934;12.050;2023-03-12T07:33:52;3.40;92.80
68480;DHT22;55469;48.934;12.050;2023-03-12T07:36:17;3.30;92.80
68480;DHT22;55469;48.934;12.050;2023-03-12T07:38:43;3.40;92.70
68480;DHT22;55469;48.934;12.050;2023-03-12T07:41:09;3.40;92.70
68480;DHT22;55469;48.934;12.050;2023-03-12T07:43:34;3.40;92.60
68480;DHT22;55469;48.934;12.050;2023-03-12T07:46:00;3.40;92.60
68480;DHT22;55469;48.934;12.050;2023-03-12T07:48:26;3.50;92.50
68480;DHT22;55469;48.934;12.050;2023-03-12T07:50:51;3.50;93.00
68480;DHT22;55469;48.934;12.050;2023-03-12T07:53:17;3.50;92.40
68480;DHT22;55469;48.934;12.050;2023-03-12T07:55:44;3.50;92.40
68480;DHT22;55469;48.934;12.050;2023-03-12T07:58:11;3.50;92.40
68480;DHT22;55469;48.934;12.050;2023-03-12T08:00:37;3.50;92.40
68480;DHT22;55469;48.934;12.050;2023-03-12T08:03:03;3.60;92.40
68480;DHT22;55469;48.934;12.050;2023-03-12T08:05:29;3.50;92.40
68480;DHT22;55469;48.934;12.050;2023-03-12T08:07:55;3.50;92.40
68480;DHT22;55469;48.934;12.050;2023-03-12T08:10:21;3.50;92.30
68480;DHT22;55469;48.934;12.050;2023-03-12T08:12:47;3.50;92.30
68480;DHT22;55469;48.934;12.050;2023-03-12T08:15:13;3.60;92.30
68480;DHT22;55469;48.934;12.050;2023-03-12T08:17:39;3.60;92.30
68480;DHT22;55469;48.934;12.050;2023-03-12T08:20:06;3.60;92.30
68480;DHT22;55469;48.934;12.050;2023-03-12T08:22:36;3.60;92.20
68480;DHT22;55469;48.934;12.050;2023-03-12T08:25:03;3.60;92.20
68480;DHT22;55469;48.934;12.050;2023-03-12T08:27:29;3.60;92.20
68480;DHT22;55469;48.934;12.050;2023-03-12T08:29:55;3.70;92.20
68480;DHT22;55469;48.934;12.050;2023-03-12T08:32:21;3.70;92.20
68480;DHT22;55469;48.934;12.050;2023-03-12T08:34:47;3.70;92.10
68480;DHT22;55469;48.934;12.050;2023-03-12T08:37:13;3.70;92.00
68480;DHT22;55469;48.934;12.050;2023-03-12T08:39:38;3.70;92.10
68480;DHT22;55469;48.934;12.050;2023-03-12T08:42:04;3.70;92.00
68480;DHT22;55469;48.934;12.050;2023-03-12T08:44:31;3.80;92.00
68480;DHT22;55469;48.934;12.050;2023-03-12T08:46:57;3.80;91.90
68480;DHT22;55469;48.934;12.050;2023-03-12T08:49:23;3.80;91.90
68480;DHT22;55469;48.934;12.050;2023-03-12T08:51:49;3.90;91.80
68480;DHT22;55469;48.934;12.050;2023-03-12T08:54:19;3.90;91.80
68480;DHT22;55469;48.934;12.050;2023-03-12T08:56:49;4.00;91.70
68480;DHT22;55469;48.934;12.050;2023-03-12T08:59:16;4.00;91.70
68480;DHT22;55469;48.934;12.050;2023-03-12T09:01:43;4.00;91.70
68480;DHT22;55469;48.934;12.050;2023-03-12T09:04:08;4.00;91.70
68480;DHT22;55469;48.934;12.050;2023-03-12T09:06:34;4.00;91.70
68480;DHT22;55469;48.934;12.050;2023-03-12T09:09:01;4.00;91.70
68480;DHT22;55469;48.934;12.050;2023-03-12T09:11:30;4.00;91.70
68480;DHT22;55469;48.934;12.050;2023-03-12T09:13:58;4.10;91.70
68480;DHT22;55469;48.934;12.050;2023-03-12T09:16:24;4.10;91.70
68480;DHT22;55469;48.934;12.050;2023-03-12T09:18:50;4.10;91.60
68480;DHT22;55469;48.934;12.050;2023-03-12T09:21:15;4.10;91.60
68480;DHT22;55469;48.934;12.050;2023-03-12T09:23:41;4.10;91.50
68480;DHT22;55469;48.934;12.050;2023-03-12T09:26:11;4.10;91.50
68480;DHT22;55469;48.934;12.050;2023-03-12T09:28:37;4.20;91.60
68480;DHT22;55469;48.934;12.050;2023-03-12T09:31:05;4.20;91.50
68480;DHT22;55469;48.934;12.050;2023-03-12T09:33:31;4.20;91.50
68480;DHT22;55469;48.934;12.050;2023-03-12T09:35:59;4.20;91.50
68480;DHT22;55469;48.934;12.050;2023-03-12T09:38:26;4.20;91.60
68480;DHT22;55469;48.934;12.050;2023-03-12T09:40:52;4.20;91.50
68480;DHT22;55469;48.934;12.050;2023-03-12T09:43:28;4.20;91.50
68480;DHT22;55469;48.934;12.050;2023-03-12T09:45:59;4.20;91.50
68480;DHT22;55469;48.934;12.050;2023-03-12T09:48:32;4.20;91.50
68480;DHT22;55469;48.934;12.050;2023-03-12T09:51:07;4.20;91.50
68480;DHT22;55469;48.934;12.050;2023-03-12T09:54:17;4.30;91.50
68480;DHT22;55469;48.934;12.050;2023-03-12T09:56:49;4.30;91.50
68480;DHT22;55469;48.934;12.050;2023-03-12T09:59:15;4.30;91.60
68480;DHT22;55469;48.934;12.050;2023-03-12T10:01:48;4.30;91.50
68480;DHT22;55469;48.934;12.050;2023-03-12T10:06:51;4.30;91.80
68480;DHT22;55469;48.934;12.050;2023-03-12T10:15:42;4.60;91.90
68480;DHT22;55469;48.934;12.050;2023-03-12T10:18:41;4.70;91.90
68480;DHT22;55469;48.934;12.050;2023-03-12T10:21:28;4.80;92.40
68480;DHT22;55469;48.934;12.050;2023-03-12T10:24:14;4.90;91.80
68480;DHT22;55469;48.934;12.050;2023-03-12T10:26:53;5.00;92.00
68480;DHT22;55469;48.934;12.050;2023-03-12T10:29:30;5.20;91.60
68480;DHT22;55469;48.934;12.050;2023-03-12T10:34:39;6.00;91.00
68480;DHT22;55469;48.934;12.050;2023-03-12T10:37:38;6.30;91.00
68480;DHT22;55469;48.934;12.050;2023-03-12T10:40:16;6.60;90.00
68480;DHT22;55469;48.934;12.050;2023-03-12T10:42:44;6.80;89.60
68480;DHT22;55469;48.934;12.050;2023-03-12T10:47:41;7.30;88.20
68480;DHT22;55469;48.934;12.050;2023-03-12T10:50:15;7.40;87.80
68480;DHT22;55469;48.934;12.050;2023-03-12T10:52:43;7.60;87.20
68480;DHT22;55469;48.934;12.050;2023-03-12T10:55:30;7.90;86.60
68480;DHT22;55469;48.934;12.050;2023-03-12T10:57:56;7.80;86.50
68480;DHT22;55469;48.934;12.050;2023-03-12T11:00:25;8.10;86.30
68480;DHT22;55469;48.934;12.050;2023-03-12T11:03:04;8.40;85.20
68480;DHT22;55469;48.934;12.050;2023-03-12T11:05:36;8.60;84.80
68480;DHT22;55469;48.934;12.050;2023-03-12T11:08:31;8.70;84.20
68480;DHT22;55469;48.934;12.050;2023-03-12T11:11:00;8.80;83.70
68480;DHT22;55469;48.934;12.050;2023-03-12T11:13:35;8.90;83.40
68480;DHT22;55469;48.934;12.050;2023-03-12T11:19:00;9.20;82.80
68480;DHT22;55469;48.934;12.050;2023-03-12T11:21:30;9.40;82.50
68480;DHT22;55469;48.934;12.050;2023-03-12T11:34:32;9.90;81.70
68480;DHT22;55469;48.934;12.050;2023-03-12T11:48:24;9.70;81.90
68480;DHT22;55469;48.934;12.050;2023-03-12T11:54:27;9.50;82.80
68480;DHT22;55469;48.934;12.050;2023-03-12T11:57:05;9.40;83.30
68480;DHT22;55469;48.934;12.050;2023-03-12T12:00:14;9.40;83.40
68480;DHT22;55469;48.934;12.050;2023-03-12T12:03:04;9.40;83.50
68480;DHT22;55469;48.934;12.050;2023-03-12T12:05:59;9.30;83.60
68480;DHT22;55469;48.934;12.050;2023-03-12T12:11:26;9.30;83.90
68480;DHT22;55469;48.934;12.050;2023-03-12T12:14:18;9.20;83.90
68480;DHT22;55469;48.934;12.050;2023-03-12T12:17:29;9.20;84.10
68480;DHT22;55469;48.934;12.050;2023-03-12T12:20:24;9.20;84.30
68480;DHT22;55469;48.934;12.050;2023-03-12T12:26:20;9.10;84.60
68480;DHT22;55469;48.934;12.050;2023-03-12T12:32:12;9.10;84.80
68480;DHT22;55469;48.934;12.050;2023-03-12T12:37:25;9.00;84.90
68480;DHT22;55469;48.934;12.050;2023-03-12T12:40:09;9.00;85.20
68480;DHT22;55469;48.934;12.050;2023-03-12T12:45:25;9.00;85.10
68480;DHT22;55469;48.934;12.050;2023-03-12T12:48:00;8.90;85.20
68480;DHT22;55469;48.934;12.050;2023-03-12T12:50:32;9.00;85.60
68480;DHT22;55469;48.934;12.050;2023-03-12T12:53:22;9.10;85.50
68480;DHT22;55469;48.934;12.050;2023-03-12T12:56:08;9.10;85.30
68480;DHT22;55469;48.934;12.050;2023-03-12T13:01:28;9.30;85.60
68480;DHT22;55469;48.934;12.050;2023-03-12T13:04:21;9.30;85.70
68480;DHT22;55469;48.934;12.050;2023-03-12T13:07:01;9.30;85.90
68480;DHT22;55469;48.934;12.050;2023-03-12T13:09:56;9.30;85.90
68480;DHT22;55469;48.934;12.050;2023-03-12T13:20:31;9.30;86.30
68480;DHT22;55469;48.934;12.050;2023-03-12T13:26:14;9.40;87.10
68480;DHT22;55469;48.934;12.050;2023-03-12T13:28:55;9.40;87.20
68480;DHT22;55469;48.934;12.050;2023-03-12T13:33:50;9.40;87.20
68480;DHT22;55469;48.934;12.050;2023-03-12T13:41:47;9.50;87.00
68480;DHT22;55469;48.934;12.050;2023-03-12T13:52:59;9.50;87.80
68480;DHT22;55469;48.934;12.050;2023-03-12T13:55:28;9.60;87.60
68480;DHT22;55469;48.934;12.050;2023-03-12T13:58:12;9.50;87.40
68480;DHT22;55469;48.934;12.050;2023-03-12T14:01:05;9.60;87.70
68480;DHT22;55469;48.934;12.050;2023-03-12T14:03:42;9.60;88.00
68480;DHT22;55469;48.934;12.050;2023-03-12T14:06:17;9.60;88.60
68480;DHT22;55469;48.934;12.050;2023-03-12T14:14:51;9.80;87.60
68480;DHT22;55469;48.934;12.050;2023-03-12T14:17:20;9.80;88.00
68480;DHT22;55469;48.934;12.050;2023-03-12T14:19:55;9.80;88.30
68480;DHT22;55469;48.934;12.050;2023-03-12T14:22:24;9.80;88.00
68480;DHT22;55469;48.934;12.050;2023-03-12T14:25:05;9.90;89.00
68480;DHT22;55469;48.934;12.050;2023-03-12T14:27:37;9.90;87.90
68480;DHT22;55469;48.934;12.050;2023-03-12T14:32:36;9.90;88.10
68480;DHT22;55469;48.934;12.050;2023-03-12T14:35:19;9.90;88.10
68480;DHT22;55469;48.934;12.050;2023-03-12T14:38:06;9.90;88.00
68480;DHT22;55469;48.934;12.050;2023-03-12T14:43:39;9.90;88.00
68480;DHT22;55469;48.934;12.050;2023-03-12T14:46:15;9.90;88.10
68480;DHT22;55469;48.934;12.050;2023-03-12T14:48:45;10.00;88.40
68480;DHT22;55469;48.934;12.050;2023-03-12T14:51:19;10.00;88.50
68480;DHT22;55469;48.934;12.050;2023-03-12T14:53:49;9.90;88.40
68480;DHT22;55469;48.934;12.050;2023-03-12T14:56:25;9.90;88.10
68480;DHT22;55469;48.934;12.050;2023-03-12T14:58:54;10.00;88.10
68480;DHT22;55469;48.934;12.050;2023-03-12T15:01:30;9.90;88.00
68480;DHT22;55469;48.934;12.050;2023-03-12T15:04:04;10.00;88.10
68480;DHT22;55469;48.934;12.050;2023-03-12T15:06:33;10.00;87.80
68480;DHT22;55469;48.934;12.050;2023-03-12T15:09:03;10.00;87.70
68480;DHT22;55469;48.934;12.050;2023-03-12T15:11:33;9.90;87.50
68480;DHT22;55469;48.934;12.050;2023-03-12T15:14:08;9.90;87.50
68480;DHT22;55469;48.934;12.050;2023-03-12T15:16:39;10.00;87.40
68480;DHT22;55469;48.934;12.050;2023-03-12T15:19:12;10.00;87.40
68480;DHT22;55469;48.934;12.050;2023-03-12T15:21:38;10.00;87.40
68480;DHT22;55469;48.934;12.050;2023-03-12T15:24:05;10.00;87.20
68480;DHT22;55469;48.934;12.050;2023-03-12T15:26:34;10.00;87.10
68480;DHT22;55469;48.934;12.050;2023-03-12T15:29:22;10.00;87.10
68480;DHT22;55469;48.934;12.050;2023-03-12T15:31:57;10.10;87.20
68480;DHT22;55469;48.934;12.050;2023-03-12T15:34:36;10.10;87.40
68480;DHT22;55469;48.934;12.050;2023-03-12T15:39:47;10.10;87.50
68480;DHT22;55469;48.934;12.050;2023-03-12T15:42:15;10.20;87.70
68480;DHT22;55469;48.934;12.050;2023-03-12T15:47:24;10.20;87.80
68480;DHT22;55469;48.934;12.050;2023-03-12T15:50:40;10.20;87.90
68480;DHT22;55469;48.934;12.050;2023-03-12T15:53:23;10.20;88.10
68480;DHT22;55469;48.934;12.050;2023-03-12T15:56:05;10.40;88.10
68480;DHT22;55469;48.934;12.050;2023-03-12T15:58:45;10.50;87.70
68480;DHT22;55469;48.934;12.050;2023-03-12T16:01:18;10.50;87.90
68480;DHT22;55469;48.934;12.050;2023-03-12T16:03:52;10.40;88.10
68480;DHT22;55469;48.934;12.050;2023-03-12T16:06:20;10.40;88.50
68480;DHT22;55469;48.934;12.050;2023-03-12T16:08:55;10.40;88.40
68480;DHT22;55469;48.934;12.050;2023-03-12T16:11:26;10.40;88.40
68480;DHT22;55469;48.934;12.050;2023-03-12T16:14:00;10.40;88.60
68480;DHT22;55469;48.934;12.050;2023-03-12T16:16:28;10.40;88.70
68480;DHT22;55469;48.934;12.050;2023-03-12T16:18:54;10.40;88.70
68480;DHT22;55469;48.934;12.050;2023-03-12T16:21:19;10.40;88.60
68480;DHT22;55469;48.934;12.050;2023-03-12T16:23:45;10.40;88.60
68480;DHT22;55469;48.934;12.050;2023-03-12T16:26:12;10.40;88.60
68480;DHT22;55469;48.934;12.050;2023-03-12T16:28:39;10.40;88.90
68480;DHT22;55469;48.934;12.050;2023-03-12T16:31:13;10.40;88.90
68480;DHT22;55469;48.934;12.050;2023-03-12T16:33:40;10.40;88.90
68480;DHT22;55469;48.934;12.050;2023-03-12T16:36:12;10.40;89.00
68480;DHT22;55469;48.934;12.050;2023-03-12T16:38:40;10.40;88.90
68480;DHT22;55469;48.934;12.050;2023-03-12T16:41:11;10.40;89.00
68480;DHT22;55469;48.934;12.050;2023-03-12T16:43:39;10.20;89.60
68480;DHT22;55469;48.934;12.050;2023-03-12T16:46:09;9.90;89.80
68480;DHT22;55469;48.934;12.050;2023-03-12T16:48:35;10.00;90.20
68480;DHT22;55469;48.934;12.050;2023-03-12T16:51:01;10.10;90.00
68480;DHT22;55469;48.934;12.050;2023-03-12T16:53:27;10.20;90.00
68480;DHT22;55469;48.934;12.050;2023-03-12T16:55:55;10.30;89.90
68480;DHT22;55469;48.934;12.050;2023-03-12T16:58:23;10.40;90.00
68480;DHT22;55469;48.934;12.050;2023-03-12T17:00:51;10.60;89.30
68480;DHT22;55469;48.934;12.050;2023-03-12T17:03:30;10.70;89.00
68480;DHT22;55469;48.934;12.050;2023-03-12T17:05:58;10.60;89.00
68480;DHT22;55469;48.934;12.050;2023-03-12T17:08:24;10.60;89.30
68480;DHT22;55469;48.934;12.050;2023-03-12T17:10:50;10.40;90.00
68480;DHT22;55469;48.934;12.050;2023-03-12T17:13:21;10.20;90.40
68480;DHT22;55469;48.934;12.050;2023-03-12T17:15:49;10.10;90.50
68480;DHT22;55469;48.934;12.050;2023-03-12T17:18:15;10.00;90.80
68480;DHT22;55469;48.934;12.050;2023-03-12T17:20:41;10.00;91.00
68480;DHT22;55469;48.934;12.050;2023-03-12T17:23:08;9.80;91.20
68480;DHT22;55469;48.934;12.050;2023-03-12T17:25:35;9.70;91.30
68480;DHT22;55469;48.934;12.050;2023-03-12T17:28:03;9.70;91.50
68480;DHT22;55469;48.934;12.050;2023-03-12T17:30:30;9.60;91.60
68480;DHT22;55469;48.934;12.050;2023-03-12T17:33:01;9.60;91.80
68480;DHT22;55469;48.934;12.050;2023-03-12T17:35:27;9.50;92.40